Terminal Aerodrome Forecast
Issued by NWS Shreveport, LA

Home | Current Version | Previous Version | Text Only | Print | Product List | Glossary On
Versions: 1 2 3 4 5 6 7 8 9 10 11 12 13 14 15 16 17 18 19 20
000
FTUS44 KSHV 202000 AAA
TAFTXK
TAF AMD
KTXK 202038Z 2021/2118 VRB04KT P6SM VCTS SCT040CB SCT070
     FM210300 00000KT P6SM FEW070
     FM211600 28005KT P6SM SCT040 SCT250=

USA.gov is the U.S. government's official web portal to all federal, state and local government web resources and services.